sensor_id;sensor_type;location;lat;lon;timestamp;temperature;humidity
6581;DHT22;3324;50.796;7.228;2022-09-21T00:00:27;10.50;99.90
6581;DHT22;3324;50.796;7.228;2022-09-21T00:02:56;10.40;99.90
6581;DHT22;3324;50.796;7.228;2022-09-21T00:05:23;10.40;99.90
6581;DHT22;3324;50.796;7.228;2022-09-21T00:07:48;10.40;99.90
6581;DHT22;3324;50.796;7.228;2022-09-21T00:10:14;10.30;99.90
6581;DHT22;3324;50.796;7.228;2022-09-21T00:12:41;10.30;99.90
6581;DHT22;3324;50.796;7.228;2022-09-21T00:15:09;10.20;99.90
6581;DHT22;3324;50.796;7.228;2022-09-21T00:17:36;10.20;99.90
6581;DHT22;3324;50.796;7.228;2022-09-21T00:20:05;10.20;99.90
6581;DHT22;3324;50.796;7.228;2022-09-21T00:22:32;10.20;99.90
6581;DHT22;3324;50.796;7.228;2022-09-21T00:24:57;10.10;99.90
6581;DHT22;3324;50.796;7.228;2022-09-21T00:27:23;10.20;99.90
6581;DHT22;3324;50.796;7.228;2022-09-21T00:29:58;10.10;99.90
6581;DHT22;3324;50.796;7.228;2022-09-21T00:32:25;10.10;99.90
6581;DHT22;3324;50.796;7.228;2022-09-21T00:34:51;10.00;99.90
6581;DHT22;3324;50.796;7.228;2022-09-21T00:37:18;10.00;99.90
6581;DHT22;3324;50.796;7.228;2022-09-21T00:39:44;10.00;99.90
6581;DHT22;3324;50.796;7.228;2022-09-21T00:42:20;10.00;99.90
6581;DHT22;3324;50.796;7.228;2022-09-21T00:44:46;9.90;99.90
6581;DHT22;3324;50.796;7.228;2022-09-21T00:47:14;9.80;99.90
6581;DHT22;3324;50.796;7.228;2022-09-21T00:49:42;9.80;99.90
6581;DHT22;3324;50.796;7.228;2022-09-21T00:52:10;9.70;99.90
6581;DHT22;3324;50.796;7.228;2022-09-21T00:54:46;9.60;99.90
6581;DHT22;3324;50.796;7.228;2022-09-21T00:57:14;9.60;99.90
6581;DHT22;3324;50.796;7.228;2022-09-21T00:59:42;9.60;99.90
6581;DHT22;3324;50.796;7.228;2022-09-21T01:02:09;9.60;99.90
6581;DHT22;3324;50.796;7.228;2022-09-21T01:04:36;9.70;99.90
6581;DHT22;3324;50.796;7.228;2022-09-21T01:07:07;9.60;99.90
6581;DHT22;3324;50.796;7.228;2022-09-21T01:09:37;9.60;99.90
6581;DHT22;3324;50.796;7.228;2022-09-21T01:12:24;9.60;99.90
6581;DHT22;3324;50.796;7.228;2022-09-21T01:17:57;9.70;99.90
6581;DHT22;3324;50.796;7.228;2022-09-21T01:31:21;9.50;99.90
6581;DHT22;3324;50.796;7.228;2022-09-21T01:33:53;9.50;99.90
6581;DHT22;3324;50.796;7.228;2022-09-21T01:36:23;9.50;99.90
6581;DHT22;3324;50.796;7.228;2022-09-21T01:38:53;9.50;99.90
6581;DHT22;3324;50.796;7.228;2022-09-21T01:41:23;9.50;99.90
6581;DHT22;3324;50.796;7.228;2022-09-21T01:43:56;9.50;99.90
6581;DHT22;3324;50.796;7.228;2022-09-21T01:46:27;9.50;99.90
6581;DHT22;3324;50.796;7.228;2022-09-21T01:48:57;9.40;99.90
6581;DHT22;3324;50.796;7.228;2022-09-21T01:51:25;9.50;99.90
6581;DHT22;3324;50.796;7.228;2022-09-21T01:53:57;9.50;99.90
6581;DHT22;3324;50.796;7.228;2022-09-21T01:56:36;9.40;99.90
6581;DHT22;3324;50.796;7.228;2022-09-21T02:01:42;9.40;99.90
6581;DHT22;3324;50.796;7.228;2022-09-21T02:04:11;9.30;99.90
6581;DHT22;3324;50.796;7.228;2022-09-21T02:06:41;9.30;99.90
6581;DHT22;3324;50.796;7.228;2022-09-21T02:09:08;9.20;99.90
6581;DHT22;3324;50.796;7.228;2022-09-21T02:11:35;9.20;99.90
6581;DHT22;3324;50.796;7.228;2022-09-21T02:14:08;9.20;99.90
6581;DHT22;3324;50.796;7.228;2022-09-21T02:16:37;9.20;99.90
6581;DHT22;3324;50.796;7.228;2022-09-21T02:19:28;9.20;99.90
6581;DHT22;3324;50.796;7.228;2022-09-21T02:22:15;9.20;99.90
6581;DHT22;3324;50.796;7.228;2022-09-21T02:24:49;9.20;99.90
6581;DHT22;3324;50.796;7.228;2022-09-21T02:30:18;9.20;99.90
6581;DHT22;3324;50.796;7.228;2022-09-21T02:38:12;9.10;99.90
6581;DHT22;3324;50.796;7.228;2022-09-21T02:46:34;9.10;99.90
6581;DHT22;3324;50.796;7.228;2022-09-21T02:49:07;9.10;99.90
6581;DHT22;3324;50.796;7.228;2022-09-21T02:52:03;9.10;99.90
6581;DHT22;3324;50.796;7.228;2022-09-21T02:54:31;9.10;99.90
6581;DHT22;3324;50.796;7.228;2022-09-21T02:56:58;9.10;99.90
6581;DHT22;3324;50.796;7.228;2022-09-21T02:59:25;9.00;99.90
6581;DHT22;3324;50.796;7.228;2022-09-21T03:01:52;9.00;99.90
6581;DHT22;3324;50.796;7.228;2022-09-21T03:04:18;9.00;99.90
6581;DHT22;3324;50.796;7.228;2022-09-21T03:06:44;8.90;99.90
6581;DHT22;3324;50.796;7.228;2022-09-21T03:09:09;8.90;99.90
6581;DHT22;3324;50.796;7.228;2022-09-21T03:11:35;8.90;99.90
6581;DHT22;3324;50.796;7.228;2022-09-21T03:14:02;8.90;99.90
6581;DHT22;3324;50.796;7.228;2022-09-21T03:16:36;8.90;99.90
6581;DHT22;3324;50.796;7.228;2022-09-21T03:19:02;8.90;99.90
6581;DHT22;3324;50.796;7.228;2022-09-21T03:21:28;8.80;99.90
6581;DHT22;3324;50.796;7.228;2022-09-21T03:23:55;8.90;99.90
6581;DHT22;3324;50.796;7.228;2022-09-21T03:26:20;8.80;99.90
6581;DHT22;3324;50.796;7.228;2022-09-21T03:28:50;8.80;99.90
6581;DHT22;3324;50.796;7.228;2022-09-21T03:31:19;8.80;99.90
6581;DHT22;3324;50.796;7.228;2022-09-21T03:33:45;8.80;99.90
6581;DHT22;3324;50.796;7.228;2022-09-21T03:36:10;8.80;99.90
6581;DHT22;3324;50.796;7.228;2022-09-21T03:38:37;8.70;99.90
6581;DHT22;3324;50.796;7.228;2022-09-21T03:41:03;8.70;99.90
6581;DHT22;3324;50.796;7.228;2022-09-21T03:43:29;8.80;99.90
6581;DHT22;3324;50.796;7.228;2022-09-21T03:45:55;8.70;99.90
6581;DHT22;3324;50.796;7.228;2022-09-21T03:48:20;8.70;99.90
6581;DHT22;3324;50.796;7.228;2022-09-21T03:50:46;8.70;99.90
6581;DHT22;3324;50.796;7.228;2022-09-21T03:53:12;8.70;99.90
6581;DHT22;3324;50.796;7.228;2022-09-21T03:55:38;8.70;99.90
6581;DHT22;3324;50.796;7.228;2022-09-21T03:58:04;8.70;99.90
6581;DHT22;3324;50.796;7.228;2022-09-21T04:00:30;8.60;99.90
6581;DHT22;3324;50.796;7.228;2022-09-21T04:02:56;8.70;99.90
6581;DHT22;3324;50.796;7.228;2022-09-21T04:05:22;8.60;99.90
6581;DHT22;3324;50.796;7.228;2022-09-21T04:07:48;8.60;99.90
6581;DHT22;3324;50.796;7.228;2022-09-21T04:10:17;8.60;99.90
6581;DHT22;3324;50.796;7.228;2022-09-21T04:12:44;8.60;99.90
6581;DHT22;3324;50.796;7.228;2022-09-21T04:15:11;8.60;99.90
6581;DHT22;3324;50.796;7.228;2022-09-21T04:17:37;8.50;99.90
6581;DHT22;3324;50.796;7.228;2022-09-21T04:20:04;8.50;99.90
6581;DHT22;3324;50.796;7.228;2022-09-21T04:22:30;8.50;99.90
6581;DHT22;3324;50.796;7.228;2022-09-21T04:24:55;8.50;99.90
6581;DHT22;3324;50.796;7.228;2022-09-21T04:27:22;8.50;99.90
6581;DHT22;3324;50.796;7.228;2022-09-21T04:29:48;8.50;99.90
6581;DHT22;3324;50.796;7.228;2022-09-21T04:32:14;8.40;99.90
6581;DHT22;3324;50.796;7.228;2022-09-21T04:34:39;8.40;99.90
6581;DHT22;3324;50.796;7.228;2022-09-21T04:37:05;8.40;99.90
6581;DHT22;3324;50.796;7.228;2022-09-21T04:39:34;8.40;99.90
6581;DHT22;3324;50.796;7.228;2022-09-21T04:42:00;8.40;99.90
6581;DHT22;3324;50.796;7.228;2022-09-21T04:44:27;8.30;99.90
6581;DHT22;3324;50.796;7.228;2022-09-21T04:46:52;8.40;99.90
6581;DHT22;3324;50.796;7.228;2022-09-21T04:49:18;8.40;99.90
6581;DHT22;3324;50.796;7.228;2022-09-21T04:51:44;8.30;99.90
6581;DHT22;3324;50.796;7.228;2022-09-21T04:54:09;8.40;99.90
6581;DHT22;3324;50.796;7.228;2022-09-21T04:56:35;8.40;99.90
6581;DHT22;3324;50.796;7.228;2022-09-21T04:59:00;8.40;99.90
6581;DHT22;3324;50.796;7.228;2022-09-21T05:01:26;8.40;99.90
6581;DHT22;3324;50.796;7.228;2022-09-21T05:03:52;8.40;99.90
6581;DHT22;3324;50.796;7.228;2022-09-21T05:06:17;8.30;99.90
6581;DHT22;3324;50.796;7.228;2022-09-21T05:08:43;8.30;99.90
6581;DHT22;3324;50.796;7.228;2022-09-21T05:11:27;8.40;99.90
6581;DHT22;3324;50.796;7.228;2022-09-21T05:13:53;8.40;99.90
6581;DHT22;3324;50.796;7.228;2022-09-21T05:16:19;8.40;99.90
6581;DHT22;3324;50.796;7.228;2022-09-21T05:18:46;8.40;99.90
6581;DHT22;3324;50.796;7.228;2022-09-21T05:21:13;8.40;99.90
6581;DHT22;3324;50.796;7.228;2022-09-21T05:23:39;8.40;99.90
6581;DHT22;3324;50.796;7.228;2022-09-21T05:26:05;8.30;99.90
6581;DHT22;3324;50.796;7.228;2022-09-21T05:28:32;8.30;99.90
6581;DHT22;3324;50.796;7.228;2022-09-21T05:33:54;8.30;99.90
6581;DHT22;3324;50.796;7.228;2022-09-21T05:36:38;8.30;99.90
6581;DHT22;3324;50.796;7.228;2022-09-21T05:39:06;8.40;99.90
6581;DHT22;3324;50.796;7.228;2022-09-21T05:41:32;8.30;99.90
6581;DHT22;3324;50.796;7.228;2022-09-21T05:43:58;8.30;99.90
6581;DHT22;3324;50.796;7.228;2022-09-21T05:46:37;8.40;99.90
6581;DHT22;3324;50.796;7.228;2022-09-21T05:52:32;8.30;99.90
6581;DHT22;3324;50.796;7.228;2022-09-21T05:55:11;8.30;99.90
6581;DHT22;3324;50.796;7.228;2022-09-21T06:00:20;8.30;99.90
6581;DHT22;3324;50.796;7.228;2022-09-21T06:03:28;8.40;99.90
6581;DHT22;3324;50.796;7.228;2022-09-21T06:05:54;8.40;99.90
6581;DHT22;3324;50.796;7.228;2022-09-21T06:08:20;8.40;99.90
6581;DHT22;3324;50.796;7.228;2022-09-21T06:10:46;8.40;99.90
6581;DHT22;3324;50.796;7.228;2022-09-21T06:13:13;8.30;99.90
6581;DHT22;3324;50.796;7.228;2022-09-21T06:15:39;8.30;99.90
6581;DHT22;3324;50.796;7.228;2022-09-21T06:18:05;8.30;99.90
6581;DHT22;3324;50.796;7.228;2022-09-21T06:20:31;8.30;99.90
6581;DHT22;3324;50.796;7.228;2022-09-21T06:23:14;8.30;99.90
6581;DHT22;3324;50.796;7.228;2022-09-21T06:25:40;8.30;99.90
6581;DHT22;3324;50.796;7.228;2022-09-21T06:28:08;8.30;99.90
6581;DHT22;3324;50.796;7.228;2022-09-21T06:30:35;8.40;99.90
6581;DHT22;3324;50.796;7.228;2022-09-21T06:33:02;8.40;99.90
6581;DHT22;3324;50.796;7.228;2022-09-21T06:35:28;8.40;99.90
6581;DHT22;3324;50.796;7.228;2022-09-21T06:37:58;8.30;99.90
6581;DHT22;3324;50.796;7.228;2022-09-21T06:40:26;8.30;99.90
6581;DHT22;3324;50.796;7.228;2022-09-21T06:42:57;8.40;99.90
6581;DHT22;3324;50.796;7.228;2022-09-21T06:45:25;8.30;99.90
6581;DHT22;3324;50.796;7.228;2022-09-21T06:47:50;8.40;99.90
6581;DHT22;3324;50.796;7.228;2022-09-21T06:50:16;8.40;99.90
6581;DHT22;3324;50.796;7.228;2022-09-21T06:52:42;8.40;99.90
6581;DHT22;3324;50.796;7.228;2022-09-21T06:55:08;8.50;99.90
6581;DHT22;3324;50.796;7.228;2022-09-21T06:57:35;8.50;99.90
6581;DHT22;3324;50.796;7.228;2022-09-21T07:00:03;8.60;99.90
6581;DHT22;3324;50.796;7.228;2022-09-21T07:02:29;8.60;99.90
6581;DHT22;3324;50.796;7.228;2022-09-21T07:04:55;8.60;99.90
6581;DHT22;3324;50.796;7.228;2022-09-21T07:07:20;8.60;99.90
6581;DHT22;3324;50.796;7.228;2022-09-21T07:09:46;8.60;99.90
6581;DHT22;3324;50.796;7.228;2022-09-21T07:12:11;8.60;99.90
6581;DHT22;3324;50.796;7.228;2022-09-21T07:14:38;8.70;99.90
6581;DHT22;3324;50.796;7.228;2022-09-21T07:17:03;8.70;99.90
6581;DHT22;3324;50.796;7.228;2022-09-21T07:19:29;8.70;99.90
6581;DHT22;3324;50.796;7.228;2022-09-21T07:21:56;8.70;99.90
6581;DHT22;3324;50.796;7.228;2022-09-21T07:24:21;8.80;99.90
6581;DHT22;3324;50.796;7.228;2022-09-21T07:26:47;8.80;99.90
6581;DHT22;3324;50.796;7.228;2022-09-21T07:29:13;8.90;99.90
6581;DHT22;3324;50.796;7.228;2022-09-21T07:31:42;9.00;99.90
6581;DHT22;3324;50.796;7.228;2022-09-21T07:34:09;9.00;99.90
6581;DHT22;3324;50.796;7.228;2022-09-21T07:36:35;9.00;99.90
6581;DHT22;3324;50.796;7.228;2022-09-21T07:39:01;9.00;99.90
6581;DHT22;3324;50.796;7.228;2022-09-21T07:41:27;9.10;99.90
6581;DHT22;3324;50.796;7.228;2022-09-21T07:43:53;9.20;99.90
6581;DHT22;3324;50.796;7.228;2022-09-21T07:46:19;9.20;99.90
6581;DHT22;3324;50.796;7.228;2022-09-21T07:48:45;9.20;99.90
6581;DHT22;3324;50.796;7.228;2022-09-21T07:51:13;9.20;99.90
6581;DHT22;3324;50.796;7.228;2022-09-21T07:53:40;9.30;99.90
6581;DHT22;3324;50.796;7.228;2022-09-21T07:56:09;9.30;99.90
6581;DHT22;3324;50.796;7.228;2022-09-21T07:58:38;9.40;99.90
6581;DHT22;3324;50.796;7.228;2022-09-21T08:01:24;9.40;99.90
6581;DHT22;3324;50.796;7.228;2022-09-21T08:03:51;9.50;99.90
6581;DHT22;3324;50.796;7.228;2022-09-21T08:06:18;9.60;99.90
6581;DHT22;3324;50.796;7.228;2022-09-21T08:08:44;9.50;99.90
6581;DHT22;3324;50.796;7.228;2022-09-21T08:11:13;9.60;99.90
6581;DHT22;3324;50.796;7.228;2022-09-21T08:13:39;9.70;99.90
6581;DHT22;3324;50.796;7.228;2022-09-21T08:16:04;9.80;99.90
6581;DHT22;3324;50.796;7.228;2022-09-21T08:18:30;9.80;99.90
6581;DHT22;3324;50.796;7.228;2022-09-21T08:20:58;9.90;99.90
6581;DHT22;3324;50.796;7.228;2022-09-21T08:23:25;10.10;99.90
6581;DHT22;3324;50.796;7.228;2022-09-21T08:26:00;10.20;99.90
6581;DHT22;3324;50.796;7.228;2022-09-21T08:28:27;10.40;99.90
6581;DHT22;3324;50.796;7.228;2022-09-21T08:30:57;10.50;99.90
6581;DHT22;3324;50.796;7.228;2022-09-21T08:33:23;10.70;99.90
6581;DHT22;3324;50.796;7.228;2022-09-21T08:35:56;10.80;99.90
6581;DHT22;3324;50.796;7.228;2022-09-21T08:38:22;10.90;99.90
6581;DHT22;3324;50.796;7.228;2022-09-21T08:40:48;11.00;99.90
6581;DHT22;3324;50.796;7.228;2022-09-21T08:45:58;11.30;99.90
6581;DHT22;3324;50.796;7.228;2022-09-21T08:48:28;11.40;99.90
6581;DHT22;3324;50.796;7.228;2022-09-21T08:50:58;11.40;99.90
6581;DHT22;3324;50.796;7.228;2022-09-21T08:53:37;11.60;99.90
6581;DHT22;3324;50.796;7.228;2022-09-21T08:56:04;11.60;99.90
6581;DHT22;3324;50.796;7.228;2022-09-21T08:58:31;11.70;99.90
6581;DHT22;3324;50.796;7.228;2022-09-21T09:09:38;12.10;99.90
6581;DHT22;3324;50.796;7.228;2022-09-21T09:14:47;12.30;99.90
6581;DHT22;3324;50.796;7.228;2022-09-21T09:19:54;12.60;99.90
6581;DHT22;3324;50.796;7.228;2022-09-21T09:22:28;12.70;99.90
6581;DHT22;3324;50.796;7.228;2022-09-21T09:24:59;12.80;99.90
6581;DHT22;3324;50.796;7.228;2022-09-21T09:27:37;13.00;99.90
6581;DHT22;3324;50.796;7.228;2022-09-21T09:30:04;13.10;99.90
6581;DHT22;3324;50.796;7.228;2022-09-21T09:37:57;13.50;99.90
6581;DHT22;3324;50.796;7.228;2022-09-21T09:40:38;13.60;99.90
6581;DHT22;3324;50.796;7.228;2022-09-21T09:46:28;13.90;99.90
6581;DHT22;3324;50.796;7.228;2022-09-21T09:51:21;14.30;99.90
6581;DHT22;3324;50.796;7.228;2022-09-21T09:53:46;14.30;99.90
6581;DHT22;3324;50.796;7.228;2022-09-21T09:56:12;14.40;99.90
6581;DHT22;3324;50.796;7.228;2022-09-21T09:58:58;14.50;99.90
6581;DHT22;3324;50.796;7.228;2022-09-21T10:01:38;14.70;99.90
6581;DHT22;3324;50.796;7.228;2022-09-21T10:04:06;14.80;99.90
6581;DHT22;3324;50.796;7.228;2022-09-21T10:06:33;14.90;99.90
6581;DHT22;3324;50.796;7.228;2022-09-21T10:08:58;15.00;99.90
6581;DHT22;3324;50.796;7.228;2022-09-21T10:11:33;15.10;99.90
6581;DHT22;3324;50.796;7.228;2022-09-21T10:14:08;15.30;99.90
6581;DHT22;3324;50.796;7.228;2022-09-21T10:16:39;15.40;99.90
6581;DHT22;3324;50.796;7.228;2022-09-21T10:19:13;15.40;99.90
6581;DHT22;3324;50.796;7.228;2022-09-21T10:21:41;15.40;99.90
6581;DHT22;3324;50.796;7.228;2022-09-21T10:26:49;15.60;99.90
6581;DHT22;3324;50.796;7.228;2022-09-21T10:34:29;15.70;99.90
6581;DHT22;3324;50.796;7.228;2022-09-21T10:36:59;15.90;99.90
6581;DHT22;3324;50.796;7.228;2022-09-21T10:39:32;15.90;99.90
6581;DHT22;3324;50.796;7.228;2022-09-21T10:42:05;16.10;99.90
6581;DHT22;3324;50.796;7.228;2022-09-21T10:47:32;16.30;99.90
6581;DHT22;3324;50.796;7.228;2022-09-21T10:50:01;16.40;99.90
6581;DHT22;3324;50.796;7.228;2022-09-21T10:52:39;16.50;99.90
6581;DHT22;3324;50.796;7.228;2022-09-21T10:55:14;16.60;99.90
6581;DHT22;3324;50.796;7.228;2022-09-21T10:57:42;16.70;99.90
6581;DHT22;3324;50.796;7.228;2022-09-21T11:02:54;16.80;99.90
6581;DHT22;3324;50.796;7.228;2022-09-21T11:05:26;16.90;99.90
6581;DHT22;3324;50.796;7.228;2022-09-21T11:15:53;17.10;99.90
6581;DHT22;3324;50.796;7.228;2022-09-21T11:18:37;17.20;99.90
6581;DHT22;3324;50.796;7.228;2022-09-21T11:21:05;17.40;99.90
6581;DHT22;3324;50.796;7.228;2022-09-21T11:23:54;17.50;99.90
6581;DHT22;3324;50.796;7.228;2022-09-21T11:26:28;17.60;99.90
6581;DHT22;3324;50.796;7.228;2022-09-21T11:37:10;17.80;99.90
6581;DHT22;3324;50.796;7.228;2022-09-21T11:40:04;18.00;99.90
6581;DHT22;3324;50.796;7.228;2022-09-21T11:47:03;18.20;99.90
6581;DHT22;3324;50.796;7.228;2022-09-21T11:55:03;18.40;99.90
6581;DHT22;3324;50.796;7.228;2022-09-21T11:57:42;18.30;99.90
6581;DHT22;3324;50.796;7.228;2022-09-21T12:05:33;18.60;99.90
6581;DHT22;3324;50.796;7.228;2022-09-21T12:16:10;18.80;99.90
6581;DHT22;3324;50.796;7.228;2022-09-21T12:21:21;19.10;99.90
6581;DHT22;3324;50.796;7.228;2022-09-21T12:24:12;19.10;99.90
6581;DHT22;3324;50.796;7.228;2022-09-21T12:26:42;19.00;99.90
6581;DHT22;3324;50.796;7.228;2022-09-21T12:29:22;19.20;99.90
6581;DHT22;3324;50.796;7.228;2022-09-21T12:34:59;19.20;99.90
6581;DHT22;3324;50.796;7.228;2022-09-21T12:37:45;19.30;99.90
6581;DHT22;3324;50.796;7.228;2022-09-21T12:40:20;19.40;99.90
6581;DHT22;3324;50.796;7.228;2022-09-21T12:45:38;19.50;99.90
6581;DHT22;3324;50.796;7.228;2022-09-21T12:53:55;19.50;99.90
6581;DHT22;3324;50.796;7.228;2022-09-21T13:15:49;19.70;99.90
6581;DHT22;3324;50.796;7.228;2022-09-21T13:18:20;19.60;99.90
6581;DHT22;3324;50.796;7.228;2022-09-21T13:20:47;19.60;97.20
6581;DHT22;3324;50.796;7.228;2022-09-21T13:23:19;19.60;97.50
6581;DHT22;3324;50.796;7.228;2022-09-21T13:25:48;19.60;97.90
6581;DHT22;3324;50.796;7.228;2022-09-21T13:33:38;19.70;93.30
6581;DHT22;3324;50.796;7.228;2022-09-21T13:36:27;19.60;92.40
6581;DHT22;3324;50.796;7.228;2022-09-21T13:41:29;19.60;95.30
6581;DHT22;3324;50.796;7.228;2022-09-21T13:43:59;19.50;94.30
6581;DHT22;3324;50.796;7.228;2022-09-21T13:51:31;19.60;93.20
6581;DHT22;3324;50.796;7.228;2022-09-21T13:53:59;19.60;91.20
6581;DHT22;3324;50.796;7.228;2022-09-21T13:56:26;19.70;92.60
6581;DHT22;3324;50.796;7.228;2022-09-21T13:58:56;19.70;92.10
6581;DHT22;3324;50.796;7.228;2022-09-21T14:01:28;19.70;94.40
6581;DHT22;3324;50.796;7.228;2022-09-21T14:04:14;19.60;93.40
6581;DHT22;3324;50.796;7.228;2022-09-21T14:06:46;19.70;91.20
6581;DHT22;3324;50.796;7.228;2022-09-21T14:09:25;19.70;93.50
6581;DHT22;3324;50.796;7.228;2022-09-21T14:12:20;19.70;91.90
6581;DHT22;3324;50.796;7.228;2022-09-21T14:17:41;19.50;93.60
6581;DHT22;3324;50.796;7.228;2022-09-21T14:20:29;19.50;94.90
6581;DHT22;3324;50.796;7.228;2022-09-21T14:25:53;19.50;92.50
6581;DHT22;3324;50.796;7.228;2022-09-21T14:31:23;19.50;91.30
6581;DHT22;3324;50.796;7.228;2022-09-21T14:33:53;19.50;91.50
6581;DHT22;3324;50.796;7.228;2022-09-21T14:36:47;19.60;91.60
6581;DHT22;3324;50.796;7.228;2022-09-21T14:39:18;19.70;90.20
6581;DHT22;3324;50.796;7.228;2022-09-21T14:41:46;19.80;87.60
6581;DHT22;3324;50.796;7.228;2022-09-21T14:44:20;20.10;82.10
6581;DHT22;3324;50.796;7.228;2022-09-21T15:00:22;20.00;80.80
6581;DHT22;3324;50.796;7.228;2022-09-21T15:05:52;20.00;80.90
6581;DHT22;3324;50.796;7.228;2022-09-21T15:08:51;19.90;84.50
6581;DHT22;3324;50.796;7.228;2022-09-21T15:11:44;19.90;84.60
6581;DHT22;3324;50.796;7.228;2022-09-21T15:14:33;20.00;86.80
6581;DHT22;3324;50.796;7.228;2022-09-21T15:17:24;19.90;85.90
6581;DHT22;3324;50.796;7.228;2022-09-21T15:19:50;19.90;83.20
6581;DHT22;3324;50.796;7.228;2022-09-21T15:22:20;19.90;81.70
6581;DHT22;3324;50.796;7.228;2022-09-21T15:24:52;19.90;89.70
6581;DHT22;3324;50.796;7.228;2022-09-21T15:27:18;19.80;91.20
6581;DHT22;3324;50.796;7.228;2022-09-21T15:29:50;19.80;87.20
6581;DHT22;3324;50.796;7.228;2022-09-21T15:32:31;19.80;86.80
6581;DHT22;3324;50.796;7.228;2022-09-21T15:35:23;19.70;86.80
6581;DHT22;3324;50.796;7.228;2022-09-21T15:37:50;19.40;90.50
6581;DHT22;3324;50.796;7.228;2022-09-21T15:40:25;19.30;93.80
6581;DHT22;3324;50.796;7.228;2022-09-21T15:43:15;19.30;93.00
6581;DHT22;3324;50.796;7.228;2022-09-21T15:46:01;19.20;93.40
6581;DHT22;3324;50.796;7.228;2022-09-21T15:48:27;19.00;95.50
6581;DHT22;3324;50.796;7.228;2022-09-21T15:51:07;18.70;98.00
6581;DHT22;3324;50.796;7.228;2022-09-21T15:53:39;18.50;98.30
6581;DHT22;3324;50.796;7.228;2022-09-21T15:56:06;18.40;98.20
6581;DHT22;3324;50.796;7.228;2022-09-21T15:58:35;18.40;99.90
6581;DHT22;3324;50.796;7.228;2022-09-21T16:01:14;18.40;98.10
6581;DHT22;3324;50.796;7.228;2022-09-21T16:03:41;18.30;98.20
6581;DHT22;3324;50.796;7.228;2022-09-21T16:08:50;18.00;99.80
6581;DHT22;3324;50.796;7.228;2022-09-21T16:14:17;17.90;98.80
6581;DHT22;3324;50.796;7.228;2022-09-21T16:24:57;17.50;99.90
6581;DHT22;3324;50.796;7.228;2022-09-21T16:27:26;17.50;99.90
6581;DHT22;3324;50.796;7.228;2022-09-21T16:29:54;17.40;99.90
6581;DHT22;3324;50.796;7.228;2022-09-21T16:32:27;17.40;99.90
6581;DHT22;3324;50.796;7.228;2022-09-21T16:35:24;17.30;99.90
6581;DHT22;3324;50.796;7.228;2022-09-21T16:37:57;17.10;99.90
6581;DHT22;3324;50.796;7.228;2022-09-21T16:40:26;17.00;99.90
6581;DHT22;3324;50.796;7.228;2022-09-21T16:42:53;17.00;99.90
6581;DHT22;3324;50.796;7.228;2022-09-21T16:45:26;17.00;99.90
6581;DHT22;3324;50.796;7.228;2022-09-21T16:47:54;16.90;99.90
6581;DHT22;3324;50.796;7.228;2022-09-21T16:50:20;16.70;99.90
6581;DHT22;3324;50.796;7.228;2022-09-21T16:52:46;16.60;99.90
6581;DHT22;3324;50.796;7.228;2022-09-21T16:55:15;16.50;99.90
6581;DHT22;3324;50.796;7.228;2022-09-21T16:57:41;16.50;99.90
6581;DHT22;3324;50.796;7.228;2022-09-21T17:00:11;16.50;99.90
6581;DHT22;3324;50.796;7.228;2022-09-21T17:02:37;16.40;99.90
6581;DHT22;3324;50.796;7.228;2022-09-21T17:05:07;16.40;99.90
6581;DHT22;3324;50.796;7.228;2022-09-21T17:07:33;16.30;99.90
6581;DHT22;3324;50.796;7.228;2022-09-21T17:09:59;16.30;99.90
6581;DHT22;3324;50.796;7.228;2022-09-21T17:12:24;16.20;99.90
6581;DHT22;3324;50.796;7.228;2022-09-21T17:14:52;16.20;99.90
6581;DHT22;3324;50.796;7.228;2022-09-21T17:17:21;16.10;99.90
6581;DHT22;3324;50.796;7.228;2022-09-21T17:19:48;16.00;99.90
6581;DHT22;3324;50.796;7.228;2022-09-21T17:22:17;16.00;99.90
6581;DHT22;3324;50.796;7.228;2022-09-21T17:24:48;15.90;99.90
6581;DHT22;3324;50.796;7.228;2022-09-21T17:27:20;15.90;99.90
6581;DHT22;3324;50.796;7.228;2022-09-21T17:29:47;15.90;99.90
6581;DHT22;3324;50.796;7.228;2022-09-21T17:32:19;15.80;99.90
6581;DHT22;3324;50.796;7.228;2022-09-21T17:34:45;15.80;99.90
6581;DHT22;3324;50.796;7.228;2022-09-21T17:37:11;15.70;99.90
6581;DHT22;3324;50.796;7.228;2022-09-21T17:39:36;15.70;99.90
6581;DHT22;3324;50.796;7.228;2022-09-21T17:42:08;15.60;99.90
6581;DHT22;3324;50.796;7.228;2022-09-21T17:47:38;15.50;99.90
6581;DHT22;3324;50.796;7.228;2022-09-21T17:50:19;15.40;99.90
6581;DHT22;3324;50.796;7.228;2022-09-21T17:52:47;15.30;99.90
6581;DHT22;3324;50.796;7.228;2022-09-21T17:55:31;15.30;99.90
6581;DHT22;3324;50.796;7.228;2022-09-21T18:03:33;15.10;99.90
6581;DHT22;3324;50.796;7.228;2022-09-21T18:06:06;15.00;99.90
6581;DHT22;3324;50.796;7.228;2022-09-21T18:08:32;14.90;99.90
6581;DHT22;3324;50.796;7.228;2022-09-21T18:11:09;14.90;99.90
6581;DHT22;3324;50.796;7.228;2022-09-21T18:24:38;14.60;99.90
6581;DHT22;3324;50.796;7.228;2022-09-21T18:27:04;14.40;99.90
6581;DHT22;3324;50.796;7.228;2022-09-21T18:29:32;14.40;99.90
6581;DHT22;3324;50.796;7.228;2022-09-21T18:40:08;14.30;99.90
6581;DHT22;3324;50.796;7.228;2022-09-21T18:45:47;14.20;99.90
6581;DHT22;3324;50.796;7.228;2022-09-21T18:48:33;14.10;99.90
6581;DHT22;3324;50.796;7.228;2022-09-21T18:51:26;14.10;99.90
6581;DHT22;3324;50.796;7.228;2022-09-21T18:53:55;14.00;99.90
6581;DHT22;3324;50.796;7.228;2022-09-21T18:56:22;14.00;99.90
6581;DHT22;3324;50.796;7.228;2022-09-21T18:58:48;13.90;99.90
6581;DHT22;3324;50.796;7.228;2022-09-21T19:01:15;13.80;99.90
6581;DHT22;3324;50.796;7.228;2022-09-21T19:03:46;13.70;99.90
6581;DHT22;3324;50.796;7.228;2022-09-21T19:14:07;13.50;99.90
6581;DHT22;3324;50.796;7.228;2022-09-21T19:21:46;13.30;99.90
6581;DHT22;3324;50.796;7.228;2022-09-21T19:31:44;13.00;99.90
6581;DHT22;3324;50.796;7.228;2022-09-21T19:34:15;13.00;99.90
6581;DHT22;3324;50.796;7.228;2022-09-21T19:36:41;13.00;99.90
6581;DHT22;3324;50.796;7.228;2022-09-21T19:39:09;12.90;99.90
6581;DHT22;3324;50.796;7.228;2022-09-21T19:44:55;12.80;99.90
6581;DHT22;3324;50.796;7.228;2022-09-21T19:47:28;12.70;99.90
6581;DHT22;3324;50.796;7.228;2022-09-21T19:49:58;12.70;99.90
6581;DHT22;3324;50.796;7.228;2022-09-21T19:52:30;12.70;99.90
6581;DHT22;3324;50.796;7.228;2022-09-21T19:54:57;12.70;99.90
6581;DHT22;3324;50.796;7.228;2022-09-21T19:57:41;12.60;99.90
6581;DHT22;3324;50.796;7.228;2022-09-21T20:00:26;12.50;99.90
6581;DHT22;3324;50.796;7.228;2022-09-21T20:03:11;12.50;99.90
6581;DHT22;3324;50.796;7.228;2022-09-21T20:11:05;12.30;99.90
6581;DHT22;3324;50.796;7.228;2022-09-21T20:13:45;12.20;99.90
6581;DHT22;3324;50.796;7.228;2022-09-21T20:16:35;12.20;99.90
6581;DHT22;3324;50.796;7.228;2022-09-21T20:19:36;12.20;99.90
6581;DHT22;3324;50.796;7.228;2022-09-21T20:22:28;12.10;99.90
6581;DHT22;3324;50.796;7.228;2022-09-21T20:29:54;12.00;99.90
6581;DHT22;3324;50.796;7.228;2022-09-21T20:32:20;12.00;99.90
6581;DHT22;3324;50.796;7.228;2022-09-21T20:34:46;12.00;99.90
6581;DHT22;3324;50.796;7.228;2022-09-21T20:37:14;11.90;99.90
6581;DHT22;3324;50.796;7.228;2022-09-21T20:39:41;11.90;99.90
6581;DHT22;3324;50.796;7.228;2022-09-21T20:42:20;11.80;99.90
6581;DHT22;3324;50.796;7.228;2022-09-21T20:44:51;11.80;99.90
6581;DHT22;3324;50.796;7.228;2022-09-21T20:47:17;11.80;99.90
6581;DHT22;3324;50.796;7.228;2022-09-21T20:49:46;11.70;99.90
6581;DHT22;3324;50.796;7.228;2022-09-21T20:52:13;11.70;99.90
6581;DHT22;3324;50.796;7.228;2022-09-21T20:54:40;11.70;99.90
6581;DHT22;3324;50.796;7.228;2022-09-21T20:57:06;11.60;99.90
6581;DHT22;3324;50.796;7.228;2022-09-21T20:59:31;11.60;99.90
6581;DHT22;3324;50.796;7.228;2022-09-21T21:01:57;11.50;99.90